sensor_id;sensor_type;location;lat;lon;timestamp;pressure;altitude;pressure_sealevel;temperature;humidity
42111;BME280;27766;52.174;5.456;2024-03-25T00:01:38;100659.91;;;7.09;100.00
42111;BME280;27766;52.174;5.456;2024-03-25T00:04:04;100662.47;;;7.09;100.00
42111;BME280;27766;52.174;5.456;2024-03-25T00:06:30;100659.59;;;6.98;100.00
42111;BME280;27766;52.174;5.456;2024-03-25T00:09:00;100665.66;;;7.00;100.00
42111;BME280;27766;52.174;5.456;2024-03-25T00:11:27;100659.34;;;6.89;100.00
42111;BME280;27766;52.174;5.456;2024-03-25T00:13:53;100667.91;;;6.89;100.00
42111;BME280;27766;52.174;5.456;2024-03-25T00:16:19;100674.72;;;6.87;100.00
42111;BME280;27766;52.174;5.456;2024-03-25T00:18:45;100661.69;;;6.82;100.00
42111;BME280;27766;52.174;5.456;2024-03-25T00:21:11;100664.06;;;6.75;100.00
42111;BME280;27766;52.174;5.456;2024-03-25T00:23:38;100663.91;;;6.70;100.00
42111;BME280;27766;52.174;5.456;2024-03-25T00:26:04;100657.16;;;6.74;100.00
42111;BME280;27766;52.174;5.456;2024-03-25T00:28:30;100654.41;;;6.68;100.00
42111;BME280;27766;52.174;5.456;2024-03-25T00:30:56;100661.88;;;6.60;100.00
42111;BME280;27766;52.174;5.456;2024-03-25T00:33:22;100655.25;;;6.68;100.00
42111;BME280;27766;52.174;5.456;2024-03-25T00:35:50;100648.50;;;6.72;100.00
42111;BME280;27766;52.174;5.456;2024-03-25T00:38:16;100646.75;;;6.71;100.00
42111;BME280;27766;52.174;5.456;2024-03-25T00:40:43;100647.69;;;6.73;100.00
42111;BME280;27766;52.174;5.456;2024-03-25T00:43:09;100645.03;;;6.70;100.00
42111;BME280;27766;52.174;5.456;2024-03-25T00:45:35;100648.34;;;6.65;100.00
42111;BME280;27766;52.174;5.456;2024-03-25T00:48:03;100646.53;;;6.63;100.00
42111;BME280;27766;52.174;5.456;2024-03-25T00:50:30;100649.06;;;6.61;100.00
42111;BME280;27766;52.174;5.456;2024-03-25T00:52:56;100637.56;;;6.50;100.00
42111;BME280;27766;52.174;5.456;2024-03-25T00:55:22;100641.88;;;6.51;100.00
42111;BME280;27766;52.174;5.456;2024-03-25T00:57:48;100629.97;;;6.53;100.00
42111;BME280;27766;52.174;5.456;2024-03-25T01:00:15;100645.53;;;6.58;100.00
42111;BME280;27766;52.174;5.456;2024-03-25T01:02:42;100653.88;;;6.51;100.00
42111;BME280;27766;52.174;5.456;2024-03-25T01:05:08;100639.91;;;6.42;100.00
42111;BME280;27766;52.174;5.456;2024-03-25T01:07:35;100649.75;;;6.56;100.00
42111;BME280;27766;52.174;5.456;2024-03-25T01:10:01;100649.72;;;6.54;100.00
42111;BME280;27766;52.174;5.456;2024-03-25T01:12:28;100648.75;;;6.51;100.00
42111;BME280;27766;52.174;5.456;2024-03-25T01:14:54;100657.84;;;6.41;100.00
42111;BME280;27766;52.174;5.456;2024-03-25T01:17:20;100660.38;;;6.39;100.00
42111;BME280;27766;52.174;5.456;2024-03-25T01:19:47;100651.88;;;6.42;100.00
42111;BME280;27766;52.174;5.456;2024-03-25T01:22:13;100653.47;;;6.38;100.00
42111;BME280;27766;52.174;5.456;2024-03-25T01:24:40;100659.97;;;6.27;100.00
42111;BME280;27766;52.174;5.456;2024-03-25T01:27:06;100654.56;;;6.19;100.00
42111;BME280;27766;52.174;5.456;2024-03-25T01:29:32;100664.00;;;6.18;100.00
42111;BME280;27766;52.174;5.456;2024-03-25T01:31:58;100657.41;;;6.27;100.00
42111;BME280;27766;52.174;5.456;2024-03-25T01:34:26;100666.03;;;6.29;100.00
42111;BME280;27766;52.174;5.456;2024-03-25T01:36:52;100661.75;;;6.28;100.00
42111;BME280;27766;52.174;5.456;2024-03-25T01:39:18;100670.19;;;6.25;100.00
42111;BME280;27766;52.174;5.456;2024-03-25T01:41:44;100658.28;;;6.27;100.00
42111;BME280;27766;52.174;5.456;2024-03-25T01:44:11;100664.03;;;6.20;100.00
42111;BME280;27766;52.174;5.456;2024-03-25T01:46:37;100662.75;;;6.07;100.00
42111;BME280;27766;52.174;5.456;2024-03-25T01:49:05;100659.53;;;6.13;100.00
42111;BME280;27766;52.174;5.456;2024-03-25T01:51:31;100654.34;;;6.11;100.00
42111;BME280;27766;52.174;5.456;2024-03-25T01:53:58;100659.41;;;6.10;100.00
42111;BME280;27766;52.174;5.456;2024-03-25T01:56:26;100656.34;;;5.96;100.00
42111;BME280;27766;52.174;5.456;2024-03-25T01:58:53;100659.94;;;5.99;100.00
42111;BME280;27766;52.174;5.456;2024-03-25T02:01:20;100656.84;;;6.10;100.00
42111;BME280;27766;52.174;5.456;2024-03-25T02:03:47;100660.19;;;6.07;100.00
42111;BME280;27766;52.174;5.456;2024-03-25T02:06:15;100661.53;;;5.97;100.00
42111;BME280;27766;52.174;5.456;2024-03-25T02:08:43;100664.88;;;5.95;100.00
42111;BME280;27766;52.174;5.456;2024-03-25T02:11:11;100665.97;;;6.01;100.00
42111;BME280;27766;52.174;5.456;2024-03-25T02:13:39;100660.97;;;6.05;100.00
42111;BME280;27766;52.174;5.456;2024-03-25T02:16:05;100663.09;;;5.92;100.00
42111;BME280;27766;52.174;5.456;2024-03-25T02:18:31;100657.78;;;5.88;100.00
42111;BME280;27766;52.174;5.456;2024-03-25T02:20:58;100670.72;;;5.91;100.00
42111;BME280;27766;52.174;5.456;2024-03-25T02:23:26;100670.69;;;5.89;100.00
42111;BME280;27766;52.174;5.456;2024-03-25T02:25:53;100669.97;;;5.93;100.00
42111;BME280;27766;52.174;5.456;2024-03-25T02:28:20;100664.94;;;5.96;100.00
42111;BME280;27766;52.174;5.456;2024-03-25T02:30:46;100673.56;;;5.98;100.00
42111;BME280;27766;52.174;5.456;2024-03-25T02:33:13;100666.88;;;6.02;100.00
42111;BME280;27766;52.174;5.456;2024-03-25T02:35:41;100654.13;;;6.05;100.00
42111;BME280;27766;52.174;5.456;2024-03-25T02:38:08;100660.03;;;6.02;100.00
42111;BME280;27766;52.174;5.456;2024-03-25T02:40:35;100672.88;;;6.02;100.00
42111;BME280;27766;52.174;5.456;2024-03-25T02:43:02;100675.34;;;5.99;100.00
42111;BME280;27766;52.174;5.456;2024-03-25T02:45:28;100671.00;;;5.98;100.00
42111;BME280;27766;52.174;5.456;2024-03-25T02:47:55;100678.00;;;6.02;100.00
42111;BME280;27766;52.174;5.456;2024-03-25T02:50:21;100666.22;;;6.08;100.00
42111;BME280;27766;52.174;5.456;2024-03-25T02:52:47;100661.88;;;6.07;100.00
42111;BME280;27766;52.174;5.456;2024-03-25T02:55:13;100669.69;;;6.10;100.00
42111;BME280;27766;52.174;5.456;2024-03-25T02:57:39;100666.22;;;6.08;100.00
42111;BME280;27766;52.174;5.456;2024-03-25T03:00:06;100669.69;;;6.10;100.00
42111;BME280;27766;52.174;5.456;2024-03-25T03:02:34;100665.31;;;6.07;100.00
42111;BME280;27766;52.174;5.456;2024-03-25T03:05:00;100656.59;;;6.02;100.00
42111;BME280;27766;52.174;5.456;2024-03-25T03:07:28;100657.94;;;5.92;100.00
42111;BME280;27766;52.174;5.456;2024-03-25T03:09:54;100662.28;;;5.93;100.00
42111;BME280;27766;52.174;5.456;2024-03-25T03:12:20;100654.44;;;5.90;100.00
42111;BME280;27766;52.174;5.456;2024-03-25T03:14:47;100655.25;;;5.89;100.00
42111;BME280;27766;52.174;5.456;2024-03-25T03:17:14;100666.34;;;5.88;100.00
42111;BME280;27766;52.174;5.456;2024-03-25T03:19:40;100654.09;;;5.79;100.00
42111;BME280;27766;52.174;5.456;2024-03-25T03:22:06;100642.72;;;5.73;100.00
42111;BME280;27766;52.174;5.456;2024-03-25T03:24:32;100660.16;;;5.81;100.00
42111;BME280;27766;52.174;5.456;2024-03-25T03:26:58;100655.22;;;5.88;100.00
42111;BME280;27766;52.174;5.456;2024-03-25T03:29:24;100652.91;;;5.95;100.00
42111;BME280;27766;52.174;5.456;2024-03-25T03:31:50;100646.00;;;5.94;100.00
42111;BME280;27766;52.174;5.456;2024-03-25T03:34:16;100640.78;;;5.91;100.00
42111;BME280;27766;52.174;5.456;2024-03-25T03:36:43;100636.41;;;5.89;100.00
42111;BME280;27766;52.174;5.456;2024-03-25T03:39:10;100643.19;;;5.86;100.00
42111;BME280;27766;52.174;5.456;2024-03-25T03:41:36;100646.59;;;5.85;100.00
42111;BME280;27766;52.174;5.456;2024-03-25T03:44:02;100629.25;;;5.80;100.00
42111;BME280;27766;52.174;5.456;2024-03-25T03:46:28;100640.50;;;5.83;100.00
42111;BME280;27766;52.174;5.456;2024-03-25T03:48:55;100640.34;;;5.79;100.00
42111;BME280;27766;52.174;5.456;2024-03-25T03:51:21;100647.03;;;5.74;100.00
42111;BME280;27766;52.174;5.456;2024-03-25T03:53:47;100624.97;;;5.54;100.00
42111;BME280;27766;52.174;5.456;2024-03-25T03:56:14;100640.59;;;5.61;100.00
42111;BME280;27766;52.174;5.456;2024-03-25T03:58:40;100636.94;;;5.54;100.00
42111;BME280;27766;52.174;5.456;2024-03-25T04:01:14;100640.16;;;5.48;100.00
42111;BME280;27766;52.174;5.456;2024-03-25T04:03:41;100634.06;;;5.45;100.00
42111;BME280;27766;52.174;5.456;2024-03-25T04:06:09;100626.94;;;5.37;100.00
42111;BME280;27766;52.174;5.456;2024-03-25T04:08:36;100636.19;;;5.32;100.00
42111;BME280;27766;52.174;5.456;2024-03-25T04:11:02;100630.97;;;5.31;100.00
42111;BME280;27766;52.174;5.456;2024-03-25T04:13:28;100634.34;;;5.30;100.00
42111;BME280;27766;52.174;5.456;2024-03-25T04:15:59;100631.31;;;5.16;100.00
42111;BME280;27766;52.174;5.456;2024-03-25T04:18:27;100628.66;;;5.14;100.00
42111;BME280;27766;52.174;5.456;2024-03-25T04:20:54;100627.41;;;5.03;100.00
42111;BME280;27766;52.174;5.456;2024-03-25T04:23:20;100631.00;;;5.08;100.00
42111;BME280;27766;52.174;5.456;2024-03-25T04:25:46;100625.63;;;5.00;100.00
42111;BME280;27766;52.174;5.456;2024-03-25T04:28:13;100642.59;;;4.97;100.00
42111;BME280;27766;52.174;5.456;2024-03-25T04:30:39;100649.16;;;4.90;100.00
42111;BME280;27766;52.174;5.456;2024-03-25T04:33:06;100644.38;;;4.77;100.00
42111;BME280;27766;52.174;5.456;2024-03-25T04:35:32;100636.56;;;4.73;100.00
42111;BME280;27766;52.174;5.456;2024-03-25T04:37:58;100644.44;;;4.78;100.00
42111;BME280;27766;52.174;5.456;2024-03-25T04:40:26;100642.00;;;4.81;100.00
42111;BME280;27766;52.174;5.456;2024-03-25T04:42:52;100643.81;;;4.84;100.00
42111;BME280;27766;52.174;5.456;2024-03-25T04:45:18;100641.19;;;4.82;100.00
42111;BME280;27766;52.174;5.456;2024-03-25T04:47:44;100642.75;;;4.79;100.00
42111;BME280;27766;52.174;5.456;2024-03-25T04:50:10;100634.19;;;4.78;100.00
42111;BME280;27766;52.174;5.456;2024-03-25T04:52:36;100633.91;;;4.70;100.00
42111;BME280;27766;52.174;5.456;2024-03-25T04:55:03;100641.69;;;4.73;100.00
42111;BME280;27766;52.174;5.456;2024-03-25T04:57:29;100637.44;;;4.74;100.00
42111;BME280;27766;52.174;5.456;2024-03-25T04:59:55;100639.13;;;4.73;100.00
42111;BME280;27766;52.174;5.456;2024-03-25T05:02:21;100638.44;;;4.78;100.00
42111;BME280;27766;52.174;5.456;2024-03-25T05:04:50;100635.69;;;4.73;100.00
42111;BME280;27766;52.174;5.456;2024-03-25T05:07:18;100644.16;;;4.70;100.00
42111;BME280;27766;52.174;5.456;2024-03-25T05:09:44;100645.59;;;4.64;100.00
42111;BME280;27766;52.174;5.456;2024-03-25T05:12:10;100638.66;;;4.61;100.00
42111;BME280;27766;52.174;5.456;2024-03-25T05:14:36;100630.75;;;4.55;100.00
42111;BME280;27766;52.174;5.456;2024-03-25T05:17:03;100646.22;;;4.58;100.00
42111;BME280;27766;52.174;5.456;2024-03-25T05:19:31;100648.69;;;4.55;100.00
42111;BME280;27766;52.174;5.456;2024-03-25T05:21:57;100648.88;;;4.59;100.00
42111;BME280;27766;52.174;5.456;2024-03-25T05:24:23;100657.38;;;4.58;100.00
42111;BME280;27766;52.174;5.456;2024-03-25T05:26:49;100659.59;;;4.51;100.00
42111;BME280;27766;52.174;5.456;2024-03-25T05:29:15;100666.34;;;4.49;100.00
42111;BME280;27766;52.174;5.456;2024-03-25T05:31:58;100674.31;;;4.55;100.00
42111;BME280;27766;52.174;5.456;2024-03-25T05:34:27;100668.19;;;4.51;100.00
42111;BME280;27766;52.174;5.456;2024-03-25T05:36:54;100674.31;;;4.55;100.00
42111;BME280;27766;52.174;5.456;2024-03-25T05:39:20;100671.84;;;4.58;100.00
42111;BME280;27766;52.174;5.456;2024-03-25T05:41:49;100670.09;;;4.57;100.00
42111;BME280;27766;52.174;5.456;2024-03-25T05:44:16;100672.75;;;4.58;100.00
42111;BME280;27766;52.174;5.456;2024-03-25T05:46:43;100671.03;;;4.59;100.00
42111;BME280;27766;52.174;5.456;2024-03-25T05:49:09;100674.56;;;4.61;100.00
42111;BME280;27766;52.174;5.456;2024-03-25T05:51:36;100655.84;;;4.64;100.00
42111;BME280;27766;52.174;5.456;2024-03-25T05:54:02;100664.00;;;4.76;100.00
42111;BME280;27766;52.174;5.456;2024-03-25T05:56:28;100662.44;;;4.80;100.00
42111;BME280;27766;52.174;5.456;2024-03-25T05:58:58;100660.94;;;4.85;100.00
42111;BME280;27766;52.174;5.456;2024-03-25T06:01:24;100671.31;;;4.88;100.00
42111;BME280;27766;52.174;5.456;2024-03-25T06:03:51;100673.19;;;4.92;100.00
42111;BME280;27766;52.174;5.456;2024-03-25T06:06:17;100673.19;;;4.92;100.00
42111;BME280;27766;52.174;5.456;2024-03-25T06:08:44;100673.41;;;4.98;100.00
42111;BME280;27766;52.174;5.456;2024-03-25T06:11:10;100665.91;;;5.03;100.00
42111;BME280;27766;52.174;5.456;2024-03-25T06:13:36;100651.50;;;5.06;100.00
42111;BME280;27766;52.174;5.456;2024-03-25T06:16:03;100659.53;;;5.16;100.00
42111;BME280;27766;52.174;5.456;2024-03-25T06:18:29;100652.06;;;5.22;100.00
42111;BME280;27766;52.174;5.456;2024-03-25T06:20:56;100658.13;;;5.24;100.00
42111;BME280;27766;52.174;5.456;2024-03-25T06:23:26;100657.53;;;5.31;100.00
42111;BME280;27766;52.174;5.456;2024-03-25T06:25:54;100655.00;;;5.33;100.00
42111;BME280;27766;52.174;5.456;2024-03-25T06:28:20;100653.25;;;5.32;100.00
42111;BME280;27766;52.174;5.456;2024-03-25T06:30:48;100648.91;;;5.29;100.00
42111;BME280;27766;52.174;5.456;2024-03-25T06:33:33;100656.59;;;5.29;100.00
42111;BME280;27766;52.174;5.456;2024-03-25T06:36:18;100645.31;;;5.24;100.00
42111;BME280;27766;52.174;5.456;2024-03-25T06:38:44;100654.63;;;5.22;100.00
42111;BME280;27766;52.174;5.456;2024-03-25T06:41:11;100641.84;;;5.23;100.00
42111;BME280;27766;52.174;5.456;2024-03-25T06:43:37;100633.88;;;5.16;100.00
42111;BME280;27766;52.174;5.456;2024-03-25T06:46:06;100640.00;;;5.19;100.00
42111;BME280;27766;52.174;5.456;2024-03-25T06:48:33;100652.91;;;5.22;100.00
42111;BME280;27766;52.174;5.456;2024-03-25T06:51:00;100643.72;;;5.28;100.00
42111;BME280;27766;52.174;5.456;2024-03-25T06:53:29;100644.75;;;5.33;100.00
42111;BME280;27766;52.174;5.456;2024-03-25T06:55:56;100654.47;;;5.42;100.00
42111;BME280;27766;52.174;5.456;2024-03-25T06:58:23;100643.56;;;5.47;100.00
42111;BME280;27766;52.174;5.456;2024-03-25T07:00:50;100644.88;;;5.60;100.00
42111;BME280;27766;52.174;5.456;2024-03-25T07:03:17;100632.44;;;5.73;100.00
42111;BME280;27766;52.174;5.456;2024-03-25T07:05:47;100645.16;;;5.94;100.00
42111;BME280;27766;52.174;5.456;2024-03-25T07:08:15;100645.44;;;6.01;100.00
42111;BME280;27766;52.174;5.456;2024-03-25T07:10:42;100655.81;;;6.05;100.00
42111;BME280;27766;52.174;5.456;2024-03-25T07:13:08;100645.59;;;6.06;100.00
42111;BME280;27766;52.174;5.456;2024-03-25T07:15:34;100646.94;;;6.21;100.00
42111;BME280;27766;52.174;5.456;2024-03-25T07:18:02;100643.78;;;6.29;100.00
42111;BME280;27766;52.174;5.456;2024-03-25T07:20:31;100654.53;;;6.43;100.00
42111;BME280;27766;52.174;5.456;2024-03-25T07:22:57;100658.72;;;6.41;100.00
42111;BME280;27766;52.174;5.456;2024-03-25T07:25:24;100646.28;;;6.55;100.00
42111;BME280;27766;52.174;5.456;2024-03-25T07:27:51;100655.34;;;6.70;100.00
42111;BME280;27766;52.174;5.456;2024-03-25T07:30:18;100652.13;;;6.77;100.00
42111;BME280;27766;52.174;5.456;2024-03-25T07:32:44;100644.31;;;6.74;100.00
42111;BME280;27766;52.174;5.456;2024-03-25T07:35:11;100661.91;;;6.89;100.00
42111;BME280;27766;52.174;5.456;2024-03-25T07:37:37;100654.50;;;7.00;100.00
42111;BME280;27766;52.174;5.456;2024-03-25T07:40:05;100662.63;;;7.13;100.00
42111;BME280;27766;52.174;5.456;2024-03-25T07:42:31;100652.72;;;7.27;100.00
42111;BME280;27766;52.174;5.456;2024-03-25T07:44:57;100657.53;;;7.45;100.00
42111;BME280;27766;52.174;5.456;2024-03-25T07:47:23;100654.38;;;7.56;100.00
42111;BME280;27766;52.174;5.456;2024-03-25T07:49:50;100651.25;;;7.68;100.00
42111;BME280;27766;52.174;5.456;2024-03-25T07:52:16;100657.38;;;7.71;100.00
42111;BME280;27766;52.174;5.456;2024-03-25T07:54:42;100663.00;;;7.90;100.00
42111;BME280;27766;52.174;5.456;2024-03-25T07:57:09;100655.47;;;7.98;100.00
42111;BME280;27766;52.174;5.456;2024-03-25T07:59:35;100659.28;;;8.12;100.00
42111;BME280;27766;52.174;5.456;2024-03-25T08:02:01;100657.75;;;8.20;100.00
42111;BME280;27766;52.174;5.456;2024-03-25T08:04:27;100653.13;;;8.42;100.00
42111;BME280;27766;52.174;5.456;2024-03-25T08:06:53;100651.03;;;8.61;100.00
42111;BME280;27766;52.174;5.456;2024-03-25T08:09:19;100661.53;;;8.70;100.00
42111;BME280;27766;52.174;5.456;2024-03-25T08:11:45;100660.84;;;8.77;100.00
42111;BME280;27766;52.174;5.456;2024-03-25T08:14:12;100654.19;;;8.87;100.00
42111;BME280;27766;52.174;5.456;2024-03-25T08:16:38;100669.88;;;8.96;100.00
42111;BME280;27766;52.174;5.456;2024-03-25T08:19:04;100664.50;;;8.87;100.00
42111;BME280;27766;52.174;5.456;2024-03-25T08:21:30;100675.09;;;8.99;100.00
42111;BME280;27766;52.174;5.456;2024-03-25T08:23:56;100667.44;;;9.02;100.00
42111;BME280;27766;52.174;5.456;2024-03-25T08:26:22;100668.16;;;8.97;100.00
42111;BME280;27766;52.174;5.456;2024-03-25T08:28:48;100664.44;;;8.85;100.00
42111;BME280;27766;52.174;5.456;2024-03-25T08:31:15;100683.03;;;9.07;100.00
42111;BME280;27766;52.174;5.456;2024-03-25T08:33:41;100674.34;;;9.03;100.00
42111;BME280;27766;52.174;5.456;2024-03-25T08:36:07;100674.03;;;8.90;100.00
42111;BME280;27766;52.174;5.456;2024-03-25T08:38:34;100669.63;;;8.85;100.00
42111;BME280;27766;52.174;5.456;2024-03-25T08:41:00;100677.00;;;9.08;100.00
42111;BME280;27766;52.174;5.456;2024-03-25T08:43:27;100672.03;;;9.17;100.00
42111;BME280;27766;52.174;5.456;2024-03-25T08:45:53;100665.06;;;9.13;100.00
42111;BME280;27766;52.174;5.456;2024-03-25T08:48:19;100673.81;;;9.20;100.00
42111;BME280;27766;52.174;5.456;2024-03-25T08:50:45;100669.34;;;9.56;100.00
42111;BME280;27766;52.174;5.456;2024-03-25T08:53:11;100676.13;;;9.49;100.00
42111;BME280;27766;52.174;5.456;2024-03-25T08:55:37;100673.78;;;9.63;100.00
42111;BME280;27766;52.174;5.456;2024-03-25T08:58:03;100672.13;;;9.65;100.00
42111;BME280;27766;52.174;5.456;2024-03-25T09:00:30;100668.59;;;9.61;100.00
42111;BME280;27766;52.174;5.456;2024-03-25T09:02:56;100651.66;;;9.30;100.00
42111;BME280;27766;52.174;5.456;2024-03-25T09:05:22;100664.16;;;9.54;100.00
42111;BME280;27766;52.174;5.456;2024-03-25T09:07:51;100657.84;;;9.38;100.00
42111;BME280;27766;52.174;5.456;2024-03-25T09:10:18;100664.47;;;9.27;100.00
42111;BME280;27766;52.174;5.456;2024-03-25T09:13:03;100655.09;;;9.32;100.00
42111;BME280;27766;52.174;5.456;2024-03-25T09:15:30;100660.94;;;9.22;100.00
42111;BME280;27766;52.174;5.456;2024-03-25T09:17:56;100662.50;;;9.15;100.00
42111;BME280;27766;52.174;5.456;2024-03-25T09:20:22;100656.72;;;9.27;100.00
42111;BME280;27766;52.174;5.456;2024-03-25T09:22:49;100646.41;;;9.27;100.00
42111;BME280;27766;52.174;5.456;2024-03-25T09:27:58;100654.94;;;9.23;100.00
42111;BME280;27766;52.174;5.456;2024-03-25T09:30:27;100655.00;;;9.26;100.00
42111;BME280;27766;52.174;5.456;2024-03-25T09:32:53;100657.69;;;9.32;100.00
42111;BME280;27766;52.174;5.456;2024-03-25T09:35:20;100658.50;;;9.29;100.00
42111;BME280;27766;52.174;5.456;2024-03-25T09:37:46;100651.66;;;9.31;100.00
42111;BME280;27766;52.174;5.456;2024-03-25T09:40:12;100657.75;;;9.35;100.00
42111;BME280;27766;52.174;5.456;2024-03-25T09:42:42;100657.97;;;9.46;100.00
42111;BME280;27766;52.174;5.456;2024-03-25T09:45:15;100655.59;;;9.57;100.00
42111;BME280;27766;52.174;5.456;2024-03-25T09:47:46;100655.84;;;9.69;100.00
42111;BME280;27766;52.174;5.456;2024-03-25T09:50:14;100651.06;;;9.91;100.00
42111;BME280;27766;52.174;5.456;2024-03-25T09:52:46;100645.44;;;10.17;100.00
42111;BME280;27766;52.174;5.456;2024-03-25T09:55:12;100642.78;;;10.10;100.00
42111;BME280;27766;52.174;5.456;2024-03-25T09:57:41;100651.00;;;9.88;100.00
42111;BME280;27766;52.174;5.456;2024-03-25T10:00:09;100640.81;;;9.95;100.00
42111;BME280;27766;52.174;5.456;2024-03-25T10:02:40;100640.03;;;10.01;100.00
42111;BME280;27766;52.174;5.456;2024-03-25T10:05:08;100639.50;;;10.21;100.00
42111;BME280;27766;52.174;5.456;2024-03-25T10:07:34;100632.72;;;10.29;100.00
42111;BME280;27766;52.174;5.456;2024-03-25T10:10:05;100625.25;;;10.44;100.00
42111;BME280;27766;52.174;5.456;2024-03-25T10:12:32;100623.72;;;10.59;100.00
42111;BME280;27766;52.174;5.456;2024-03-25T10:14:58;100618.78;;;10.76;100.00
42111;BME280;27766;52.174;5.456;2024-03-25T10:17:24;100611.94;;;10.80;100.00
42111;BME280;27766;52.174;5.456;2024-03-25T10:19:53;100617.81;;;10.68;100.00
42111;BME280;27766;52.174;5.456;2024-03-25T10:22:20;100616.13;;;10.71;100.00
42111;BME280;27766;52.174;5.456;2024-03-25T10:24:47;100612.78;;;10.79;100.00
42111;BME280;27766;52.174;5.456;2024-03-25T10:27:22;100608.56;;;10.85;100.00
42111;BME280;27766;52.174;5.456;2024-03-25T10:29:53;100608.34;;;10.71;100.00
42111;BME280;27766;52.174;5.456;2024-03-25T10:32:20;100607.72;;;10.88;100.00
42111;BME280;27766;52.174;5.456;2024-03-25T10:34:47;100603.41;;;10.88;100.00
42111;BME280;27766;52.174;5.456;2024-03-25T10:37:15;100596.31;;;10.73;100.00
42111;BME280;27766;52.174;5.456;2024-03-25T10:39:54;100594.00;;;10.95;100.00
42111;BME280;27766;52.174;5.456;2024-03-25T10:42:26;100593.16;;;10.98;100.00
42111;BME280;27766;52.174;5.456;2024-03-25T10:44:52;100596.03;;;11.21;100.00
42111;BME280;27766;52.174;5.456;2024-03-25T10:47:21;100590.88;;;11.21;100.00
42111;BME280;27766;52.174;5.456;2024-03-25T10:49:50;100587.53;;;11.33;100.00
42111;BME280;27766;52.174;5.456;2024-03-25T10:52:17;100570.25;;;11.33;100.00
42111;BME280;27766;52.174;5.456;2024-03-25T10:54:47;100584.97;;;11.36;100.00
42111;BME280;27766;52.174;5.456;2024-03-25T10:57:14;100575.59;;;11.50;100.00
42111;BME280;27766;52.174;5.456;2024-03-25T10:59:44;100566.97;;;11.50;100.00
42111;BME280;27766;52.174;5.456;2024-03-25T11:02:11;100568.81;;;11.60;100.00
42111;BME280;27766;52.174;5.456;2024-03-25T11:04:39;100565.34;;;11.61;100.00
42111;BME280;27766;52.174;5.456;2024-03-25T11:07:15;100561.94;;;11.65;100.00
42111;BME280;27766;52.174;5.456;2024-03-25T11:09:42;100564.44;;;11.57;100.00
42111;BME280;27766;52.174;5.456;2024-03-25T11:12:12;100554.22;;;11.73;100.00
42111;BME280;27766;52.174;5.456;2024-03-25T11:14:39;100551.66;;;11.78;100.00
42111;BME280;27766;52.174;5.456;2024-03-25T11:17:15;100561.19;;;11.76;100.00
42111;BME280;27766;52.174;5.456;2024-03-25T11:19:44;100554.31;;;11.81;100.00
42111;BME280;27766;52.174;5.456;2024-03-25T11:22:11;100546.47;;;11.78;100.00
42111;BME280;27766;52.174;5.456;2024-03-25T11:24:37;100548.31;;;11.90;100.00
42111;BME280;27766;52.174;5.456;2024-03-25T11:27:07;100537.91;;;11.85;100.00
42111;BME280;27766;52.174;5.456;2024-03-25T11:29:34;100529.41;;;12.01;100.00
42111;BME280;27766;52.174;5.456;2024-03-25T11:32:04;100535.34;;;11.86;100.00
42111;BME280;27766;52.174;5.456;2024-03-25T11:34:31;100535.53;;;12.08;100.00
42111;BME280;27766;52.174;5.456;2024-03-25T11:36:57;100522.63;;;12.19;100.00
42111;BME280;27766;52.174;5.456;2024-03-25T11:39:24;100533.91;;;12.30;100.00
42111;BME280;27766;52.174;5.456;2024-03-25T11:41:52;100532.16;;;12.23;100.00
42111;BME280;27766;52.174;5.456;2024-03-25T11:44:19;100532.91;;;12.05;100.00
42111;BME280;27766;52.174;5.456;2024-03-25T11:46:45;100522.53;;;12.03;100.00
42111;BME280;27766;52.174;5.456;2024-03-25T11:49:13;100518.13;;;11.96;100.00
42111;BME280;27766;52.174;5.456;2024-03-25T11:51:40;100513.16;;;12.26;100.00
42111;BME280;27766;52.174;5.456;2024-03-25T11:54:10;100512.34;;;12.36;100.00
42111;BME280;27766;52.174;5.456;2024-03-25T11:56:37;100508.97;;;12.54;100.00
42111;BME280;27766;52.174;5.456;2024-03-25T11:59:06;100514.97;;;12.47;89.58
42111;BME280;27766;52.174;5.456;2024-03-25T12:01:33;100500.31;;;12.57;99.00
42111;BME280;27766;52.174;5.456;2024-03-25T12:04:10;100496.91;;;12.72;100.00
42111;BME280;27766;52.174;5.456;2024-03-25T12:06:36;100481.38;;;12.84;98.19
42111;BME280;27766;52.174;5.456;2024-03-25T12:09:02;100486.59;;;12.87;92.37
42111;BME280;27766;52.174;5.456;2024-03-25T12:11:47;100484.81;;;12.68;90.04
42111;BME280;27766;52.174;5.456;2024-03-25T12:14:14;100480.47;;;12.66;83.98
42111;BME280;27766;52.174;5.456;2024-03-25T12:16:42;100477.84;;;12.65;91.59
42111;BME280;27766;52.174;5.456;2024-03-25T12:19:08;100476.97;;;12.60;92.49
42111;BME280;27766;52.174;5.456;2024-03-25T12:21:34;100479.56;;;12.61;92.29
42111;BME280;27766;52.174;5.456;2024-03-25T12:24:00;100478.75;;;12.70;90.39
42111;BME280;27766;52.174;5.456;2024-03-25T12:26:27;100471.00;;;12.81;95.43
42111;BME280;27766;52.174;5.456;2024-03-25T12:28:53;100469.28;;;12.89;90.36
42111;BME280;27766;52.174;5.456;2024-03-25T12:31:23;100462.34;;;12.96;85.45
42111;BME280;27766;52.174;5.456;2024-03-25T12:33:49;100440.72;;;12.97;89.87
42111;BME280;27766;52.174;5.456;2024-03-25T12:36:16;100439.88;;;12.96;92.31
42111;BME280;27766;52.174;5.456;2024-03-25T12:38:42;100439.88;;;13.06;85.95
42111;BME280;27766;52.174;5.456;2024-03-25T12:41:11;100454.59;;;13.10;80.38
42111;BME280;27766;52.174;5.456;2024-03-25T12:43:47;100444.19;;;13.11;81.43
42111;BME280;27766;52.174;5.456;2024-03-25T12:46:13;100445.09;;;13.18;88.62
42111;BME280;27766;52.174;5.456;2024-03-25T12:48:40;100444.22;;;13.25;79.11
42111;BME280;27766;52.174;5.456;2024-03-25T12:51:13;100441.59;;;13.22;74.31